Alleyton, Texas
Current Conditions -  °F | °C
As of 6:55 PM on Friday 19 Dec 2014 (Local Time) from K66R Reporting Station
Haze Haze  
Wind Chill: 53°   Ceiling: 400
Heat Index: 53°   Visibility: 4mi
Dew Point: 53°   Wind: 16mph
Humidity: 97%   Direction: 340°NNW
Pressure: 30.1"   Gusts: 20mph
Location:  29.71°N, 96.49°W
Report Text: K66R 200055Z AUTO 34014G17KT 4SM BR OVC004 12/12 A3010 RMK AO2 T01190115
Loading
Personal Weather Stations






























Interactive Weather Map New forecast layout! Learn more

10-Day Weather Forecast

Advertisements
Track Severe Weather on mobile